createdAt,value
2022-10-19T00:01:44.785Z,70.00
2022-10-19T00:04:11.631Z,70.00
2022-10-19T00:06:38.546Z,70.00
2022-10-19T00:09:14.160Z,70.10
2022-10-19T00:11:44.036Z,70.10
2022-10-19T00:14:28.873Z,70.10
2022-10-19T00:16:56.290Z,70.30
2022-10-19T00:19:26.095Z,70.30
2022-10-19T00:21:53.139Z,70.50
2022-10-19T00:24:20.099Z,70.60
2022-10-19T00:26:47.295Z,70.60
2022-10-19T00:29:15.187Z,70.70
2022-10-19T00:31:42.394Z,70.70
2022-10-19T00:34:09.812Z,70.80
2022-10-19T00:36:39.767Z,70.80
2022-10-19T00:39:10.198Z,70.90
2022-10-19T00:41:37.964Z,71.00
2022-10-19T00:44:26.887Z,71.00
2022-10-19T00:46:54.200Z,71.10
2022-10-19T00:49:24.822Z,71.20
2022-10-19T00:51:54.829Z,71.60
2022-10-19T00:54:22.467Z,71.80
2022-10-19T00:56:51.880Z,71.70
2022-10-19T00:59:21.356Z,71.70
2022-10-19T01:01:50.027Z,71.70
2022-10-19T01:04:18.340Z,71.80
2022-10-19T01:06:45.319Z,72.00
2022-10-19T01:09:12.281Z,72.10
2022-10-19T01:11:45.098Z,72.20
2022-10-19T01:14:21.038Z,72.20
2022-10-19T01:16:55.626Z,72.10
2022-10-19T01:20:16.736Z,72.00
2022-10-19T01:22:55.511Z,72.20
2022-10-19T01:25:53.956Z,72.30
2022-10-19T01:28:29.769Z,72.50
2022-10-19T01:31:15.344Z,72.60
2022-10-19T01:34:12.128Z,72.60
2022-10-19T01:36:48.620Z,72.50
2022-10-19T01:39:38.178Z,72.50
2022-10-19T01:42:28.638Z,72.40
2022-10-19T01:45:06.948Z,72.50
2022-10-19T01:48:06.846Z,72.40
2022-10-19T01:51:02.185Z,72.50
2022-10-19T01:53:33.043Z,72.50
2022-10-19T01:56:01.875Z,72.60
2022-10-19T01:58:33.638Z,72.60
2022-10-19T02:01:04.732Z,72.70
2022-10-19T02:03:33.634Z,72.80
2022-10-19T02:06:02.653Z,72.80
2022-10-19T02:08:35.084Z,72.80
2022-10-19T02:11:02.917Z,72.80
2022-10-19T02:13:30.665Z,72.70
2022-10-19T02:16:01.467Z,72.70
2022-10-19T02:18:37.755Z,72.70
2022-10-19T02:21:06.208Z,72.70
2022-10-19T02:23:34.079Z,72.70
2022-10-19T02:26:01.016Z,72.70
2022-10-19T02:28:28.916Z,72.70
2022-10-19T02:30:56.407Z,72.80
2022-10-19T02:33:23.486Z,73.10
2022-10-19T02:35:50.543Z,73.30
2022-10-19T02:38:21.424Z,73.40
2022-10-19T02:40:57.670Z,73.50
2022-10-19T02:43:26.799Z,73.50
2022-10-19T02:46:02.351Z,73.50
2022-10-19T02:48:32.041Z,73.60
2022-10-19T02:50:58.832Z,73.70
2022-10-19T02:53:25.547Z,73.90
2022-10-19T02:55:52.578Z,74.00
2022-10-19T02:58:21.993Z,74.00
2022-10-19T03:00:48.809Z,73.90
2022-10-19T03:03:15.645Z,74.00
2022-10-19T03:05:42.453Z,74.00
2022-10-19T03:08:09.317Z,73.90
2022-10-19T03:10:36.270Z,73.90
2022-10-19T03:13:03.093Z,73.90
2022-10-19T03:15:30.005Z,73.90
2022-10-19T03:17:57.226Z,73.90
2022-10-19T03:20:24.206Z,74.00
2022-10-19T03:25:18.334Z,74.30
2022-10-19T03:27:45.166Z,74.40
2022-10-19T03:30:12.080Z,74.40
2022-10-19T03:32:38.950Z,74.50
2022-10-19T03:35:06.329Z,74.50
2022-10-19T03:37:33.454Z,74.50
2022-10-19T03:40:00.618Z,74.50
2022-10-19T03:42:27.446Z,74.50
2022-10-19T03:44:54.176Z,74.60
2022-10-19T03:47:20.951Z,74.70
2022-10-19T03:49:50.202Z,74.80
2022-10-19T03:52:21.101Z,74.80
2022-10-19T03:54:50.864Z,74.80
2022-10-19T03:57:17.612Z,75.00
2022-10-19T03:59:44.398Z,74.90
2022-10-19T04:02:11.212Z,75.00
2022-10-19T04:04:38.097Z,75.00
2022-10-19T04:07:04.910Z,75.00
2022-10-19T04:09:31.619Z,75.00
2022-10-19T04:11:58.410Z,75.10
2022-10-19T04:14:32.622Z,75.20
2022-10-19T04:17:01.645Z,75.40
2022-10-19T04:19:28.513Z,75.40
2022-10-19T04:21:55.406Z,75.60
2022-10-19T04:24:22.288Z,75.80
2022-10-19T04:26:54.189Z,75.90
2022-10-19T04:29:25.105Z,76.00
2022-10-19T04:31:54.834Z,75.90
2022-10-19T04:34:22.053Z,75.80
2022-10-19T04:36:48.844Z,75.80
2022-10-19T04:39:15.599Z,75.70
2022-10-19T04:41:42.412Z,75.60
2022-10-19T04:44:10.013Z,75.60
2022-10-19T04:46:38.262Z,75.70
2022-10-19T04:49:06.727Z,75.70
2022-10-19T04:51:34.458Z,75.80
2022-10-19T04:54:03.764Z,75.90
2022-10-19T04:56:32.305Z,76.10
2022-10-19T04:59:00.428Z,76.20
2022-10-19T05:01:29.154Z,76.40
2022-10-19T05:03:58.654Z,76.50
2022-10-19T05:06:26.458Z,76.60
2022-10-19T05:08:53.644Z,76.70
2022-10-19T05:11:20.825Z,76.60
2022-10-19T05:13:48.127Z,76.60
2022-10-19T05:16:18.985Z,76.50
2022-10-19T05:18:56.118Z,76.50
2022-10-19T05:21:24.054Z,76.50
2022-10-19T05:23:52.811Z,76.50
2022-10-19T05:26:21.905Z,76.70
2022-10-19T05:28:50.469Z,76.60
2022-10-19T05:31:20.186Z,76.50
2022-10-19T05:33:47.571Z,76.60
2022-10-19T05:36:17.279Z,76.70
2022-10-19T05:38:45.701Z,76.70
2022-10-19T05:41:13.329Z,76.60
2022-10-19T05:43:41.920Z,76.50
2022-10-19T05:46:19.100Z,76.40
2022-10-19T05:48:46.686Z,76.50
2022-10-19T05:51:16.195Z,76.50
2022-10-19T05:53:43.757Z,76.40
2022-10-19T05:56:18.110Z,76.30
2022-10-19T05:58:45.306Z,76.50
2022-10-19T06:01:12.705Z,76.50
2022-10-19T06:03:39.874Z,76.60
2022-10-19T06:06:08.668Z,76.70
2022-10-19T06:08:36.249Z,76.70
2022-10-19T06:11:14.300Z,76.60
2022-10-19T06:13:42.710Z,76.70
2022-10-19T06:16:10.761Z,76.50
2022-10-19T06:18:38.049Z,76.50
2022-10-19T06:21:12.049Z,76.40
2022-10-19T06:23:39.608Z,76.40
2022-10-19T06:26:12.313Z,76.40
2022-10-19T06:28:40.477Z,76.50
2022-10-19T06:31:09.195Z,76.70
2022-10-19T06:33:36.807Z,76.90
2022-10-19T06:36:16.437Z,76.90
2022-10-19T06:38:43.926Z,77.20
2022-10-19T06:41:11.698Z,77.20
2022-10-19T06:43:38.793Z,77.30
2022-10-19T06:46:07.405Z,77.60
2022-10-19T06:48:34.688Z,77.80
2022-10-19T06:51:06.217Z,78.10
2022-10-19T06:53:34.411Z,78.20
2022-10-19T06:56:04.073Z,78.40
2022-10-19T06:58:31.258Z,78.50
2022-10-19T07:00:59.583Z,78.60
2022-10-19T07:03:27.492Z,78.70
2022-10-19T07:05:59.794Z,78.80
2022-10-19T07:08:28.607Z,78.80
2022-10-19T07:10:58.802Z,79.00
2022-10-19T07:13:26.760Z,79.10
2022-10-19T07:16:02.853Z,79.10
2022-10-19T07:18:29.782Z,79.10
2022-10-19T07:20:58.494Z,79.00
2022-10-19T07:23:27.010Z,79.00
2022-10-19T07:25:55.489Z,79.00
2022-10-19T07:28:22.593Z,79.10
2022-10-19T07:30:49.428Z,79.10
2022-10-19T07:35:47.991Z,79.10
2022-10-19T07:38:14.688Z,79.20
2022-10-19T07:40:44.853Z,79.30
2022-10-19T07:43:14.119Z,79.20
2022-10-19T07:45:40.962Z,79.10
2022-10-19T07:48:08.333Z,79.10
2022-10-19T07:50:35.093Z,79.00
2022-10-19T07:53:05.212Z,78.90
2022-10-19T07:55:34.290Z,78.80
2022-10-19T07:58:02.043Z,78.60
2022-10-19T08:00:29.681Z,78.60
2022-10-19T08:03:23.069Z,78.60
2022-10-19T08:05:43.565Z,78.50
2022-10-19T08:08:10.639Z,78.40
2022-10-19T08:10:37.489Z,78.50
2022-10-19T08:13:04.248Z,78.50
2022-10-19T08:15:31.086Z,78.70
2022-10-19T08:17:57.963Z,79.20
2022-10-19T08:20:24.710Z,82.00
2022-10-19T08:22:56.372Z,86.50
2022-10-19T08:25:25.798Z,88.70
2022-10-19T08:27:52.591Z,86.50
2022-10-19T08:30:19.730Z,83.90
2022-10-19T08:32:46.511Z,82.00
2022-10-19T08:35:13.339Z,81.90
2022-10-19T08:37:44.690Z,78.90
2022-10-19T08:40:23.962Z,76.00
2022-10-19T08:43:02.494Z,72.90
2022-10-19T08:48:25.170Z,67.00
2022-10-19T08:50:52.953Z,62.30
2022-10-19T08:53:54.299Z,60.90
2022-10-19T08:56:52.065Z,59.10
2022-10-19T08:59:38.197Z,59.40
2022-10-19T09:02:16.194Z,58.70
2022-10-19T09:04:54.587Z,56.30
2022-10-19T09:07:31.012Z,55.20
2022-10-19T09:10:06.703Z,53.80
2022-10-19T09:12:55.090Z,53.30
2022-10-19T09:15:46.350Z,52.10
2022-10-19T09:18:20.144Z,52.10
2022-10-19T09:20:55.807Z,51.50
2022-10-19T09:23:47.386Z,50.30
2022-10-19T09:26:18.547Z,49.80
2022-10-19T09:28:54.732Z,49.00
2022-10-19T09:31:40.967Z,47.40
2022-10-19T09:34:29.869Z,47.90
2022-10-19T09:36:58.987Z,47.90
2022-10-19T09:39:29.867Z,47.80
2022-10-19T09:42:22.954Z,47.30
2022-10-19T09:44:51.940Z,47.50
2022-10-19T09:47:47.729Z,48.10
2022-10-19T09:50:24.645Z,47.60
2022-10-19T09:53:02.565Z,47.40
2022-10-19T09:55:39.760Z,46.40
2022-10-19T09:58:17.959Z,45.20
2022-10-19T10:00:47.613Z,44.30
2022-10-19T10:03:39.299Z,43.80
2022-10-19T10:06:13.368Z,42.80
2022-10-19T10:08:47.002Z,42.60
2022-10-19T10:11:24.841Z,41.50
2022-10-19T10:13:54.239Z,41.40
2022-10-19T10:16:23.596Z,41.10
2022-10-19T10:18:59.601Z,41.40
2022-10-19T10:21:32.385Z,41.70
2022-10-19T10:24:12.926Z,42.10
2022-10-19T10:26:46.342Z,41.90
2022-10-19T10:29:20.262Z,42.10
2022-10-19T10:31:56.562Z,40.90
2022-10-19T10:34:53.968Z,40.90
2022-10-19T10:37:28.446Z,41.30
2022-10-19T10:40:00.316Z,41.30
2022-10-19T10:42:46.157Z,40.70
2022-10-19T10:45:32.679Z,40.00
2022-10-19T10:48:27.758Z,40.40
2022-10-19T10:50:55.456Z,40.20
2022-10-19T10:53:35.719Z,40.80
2022-10-19T10:56:04.677Z,39.90
2022-10-19T10:58:47.882Z,40.20
2022-10-19T11:01:23.881Z,39.60
2022-10-19T11:04:06.339Z,38.60
2022-10-19T11:06:37.660Z,37.90
2022-10-19T11:09:08.586Z,36.70
2022-10-19T11:11:39.506Z,36.60
2022-10-19T11:14:29.591Z,36.30
2022-10-19T11:17:00.441Z,35.10
2022-10-19T11:19:32.394Z,35.20
2022-10-19T11:22:08.073Z,35.00
2022-10-19T11:24:48.611Z,35.20
2022-10-19T11:27:32.231Z,34.70
2022-10-19T11:30:07.141Z,34.40
2022-10-19T11:32:52.108Z,34.10
2022-10-19T11:35:39.201Z,33.50
2022-10-19T11:38:28.731Z,33.80
2022-10-19T11:41:19.051Z,33.20
2022-10-19T11:44:11.163Z,33.80
2022-10-19T11:46:58.191Z,33.30
2022-10-19T11:49:37.563Z,32.90
2022-10-19T11:52:17.394Z,33.00
2022-10-19T11:54:44.211Z,32.20
2022-10-19T11:57:25.409Z,31.90
2022-10-19T12:00:37.525Z,31.60
2022-10-19T12:03:36.407Z,31.30
2022-10-19T12:06:47.544Z,31.40
2022-10-19T12:09:46.623Z,31.70
2022-10-19T12:12:31.761Z,32.00
2022-10-19T12:15:05.861Z,32.50
2022-10-19T12:17:37.049Z,32.50
2022-10-19T12:20:22.677Z,31.80
2022-10-19T12:22:50.521Z,32.00
2022-10-19T12:25:19.737Z,31.50
2022-10-19T12:27:49.101Z,32.40
2022-10-19T12:30:22.712Z,31.60
2022-10-19T12:33:03.383Z,31.80
2022-10-19T12:35:52.969Z,32.40
2022-10-19T12:38:27.739Z,32.10
2022-10-19T12:41:16.307Z,32.00
2022-10-19T12:44:01.747Z,31.40
2022-10-19T12:46:28.463Z,31.50
2022-10-19T12:49:38.938Z,31.80
2022-10-19T12:52:07.896Z,31.60
2022-10-19T12:54:37.917Z,31.20
2022-10-19T12:57:29.976Z,31.50
2022-10-19T13:00:23.038Z,31.30
2022-10-19T13:03:00.873Z,31.70
2022-10-19T13:05:30.323Z,31.20
2022-10-19T13:07:57.806Z,31.20
2022-10-19T13:10:27.573Z,31.00
2022-10-19T13:12:54.771Z,31.70
2022-10-19T13:15:36.873Z,32.30
2022-10-19T13:18:16.858Z,32.00
2022-10-19T13:20:53.227Z,32.20
2022-10-19T13:23:29.068Z,31.30
2022-10-19T13:26:32.850Z,31.60
2022-10-19T13:29:00.220Z,31.50
2022-10-19T13:31:31.528Z,31.90
2022-10-19T13:33:58.773Z,31.90
2022-10-19T13:36:25.772Z,32.50
2022-10-19T13:38:58.620Z,32.70
2022-10-19T13:41:27.545Z,32.40
2022-10-19T13:44:16.084Z,32.40
2022-10-19T13:46:54.043Z,32.00
2022-10-19T13:49:32.765Z,31.50
2022-10-19T13:52:08.748Z,31.50
2022-10-19T13:54:44.304Z,31.70
2022-10-19T13:57:17.856Z,31.30
2022-10-19T14:00:15.377Z,32.00
2022-10-19T14:03:09.359Z,31.60
2022-10-19T14:05:47.363Z,31.70
2022-10-19T14:08:20.200Z,32.00
2022-10-19T14:11:01.148Z,32.60
2022-10-19T14:13:29.186Z,32.60
2022-10-19T14:15:57.686Z,33.30
2022-10-19T14:18:28.987Z,33.20
2022-10-19T14:21:00.551Z,33.60
2022-10-19T14:23:32.662Z,34.10
2022-10-19T14:26:06.620Z,34.50
2022-10-19T14:28:34.048Z,34.30
2022-10-19T14:31:02.808Z,34.40
2022-10-19T14:33:35.973Z,34.70
2022-10-19T14:36:02.880Z,34.60
2022-10-19T14:38:36.632Z,34.30
2022-10-19T14:41:06.277Z,33.90
2022-10-19T14:43:34.698Z,34.20
2022-10-19T14:46:07.662Z,34.50
2022-10-19T14:48:36.147Z,34.60
2022-10-19T14:51:09.965Z,34.50
2022-10-19T14:53:48.506Z,35.00
2022-10-19T14:56:27.328Z,34.80
2022-10-19T14:58:59.269Z,34.90
2022-10-19T15:01:26.174Z,35.10
2022-10-19T15:03:53.291Z,35.30
2022-10-19T15:06:26.797Z,35.80
2022-10-19T15:09:04.198Z,36.10
2022-10-19T15:11:37.523Z,36.30
2022-10-19T15:14:12.058Z,36.10
2022-10-19T15:16:53.421Z,36.30
2022-10-19T15:19:41.038Z,37.30
2022-10-19T15:22:21.720Z,37.70
2022-10-19T15:25:07.163Z,38.30
2022-10-19T15:27:35.057Z,39.00
2022-10-19T15:30:06.278Z,39.40
2022-10-19T15:32:38.365Z,40.20
2022-10-19T15:35:12.866Z,40.90
2022-10-19T15:37:43.426Z,41.60
2022-10-19T15:40:24.214Z,42.30
2022-10-19T15:42:51.118Z,42.90
2022-10-19T15:45:36.376Z,43.50
2022-10-19T15:48:26.355Z,44.20
2022-10-19T15:50:54.668Z,44.70
2022-10-19T15:53:22.261Z,45.10
2022-10-19T15:55:49.114Z,45.70
2022-10-19T15:58:16.327Z,46.20
2022-10-19T16:00:44.856Z,46.90
2022-10-19T16:03:11.673Z,47.50
2022-10-19T16:05:38.619Z,47.90
2022-10-19T16:08:07.885Z,48.40
2022-10-19T16:10:37.046Z,48.90
2022-10-19T16:13:03.770Z,49.00
2022-10-19T16:15:30.548Z,49.50
2022-10-19T16:17:59.880Z,49.90
2022-10-19T16:20:28.534Z,50.20
2022-10-19T16:22:55.378Z,50.30
2022-10-19T16:25:22.365Z,50.70
2022-10-19T16:27:49.352Z,51.20
2022-10-19T16:30:16.313Z,51.50
2022-10-19T16:32:43.196Z,51.70
2022-10-19T16:35:10.272Z,51.90
2022-10-19T16:37:37.415Z,52.20
2022-10-19T16:40:05.243Z,52.50
2022-10-19T16:42:32.749Z,52.60
2022-10-19T16:44:59.643Z,53.30
2022-10-19T16:47:26.383Z,53.50
2022-10-19T16:49:59.935Z,53.80
2022-10-19T16:52:33.035Z,54.10
2022-10-19T16:55:00.473Z,54.50
2022-10-19T16:57:27.374Z,54.50
2022-10-19T16:59:54.418Z,55.00
2022-10-19T17:02:22.043Z,55.30
2022-10-19T17:04:48.872Z,55.80
2022-10-19T17:07:15.894Z,56.00
2022-10-19T17:09:43.265Z,56.40
2022-10-19T17:12:11.334Z,56.90
2022-10-19T17:14:40.327Z,57.10
2022-10-19T17:17:08.045Z,57.40
2022-10-19T17:19:36.847Z,57.60
2022-10-19T17:22:05.105Z,57.80
2022-10-19T17:24:32.285Z,58.00
2022-10-19T17:27:03.189Z,58.00
2022-10-19T17:29:30.108Z,58.20
2022-10-19T17:31:57.632Z,58.30
2022-10-19T17:34:24.428Z,58.40
2022-10-19T17:36:51.207Z,58.70
2022-10-19T17:39:25.784Z,58.80
2022-10-19T17:42:01.162Z,58.80
2022-10-19T17:44:30.425Z,58.90
2022-10-19T17:46:57.353Z,59.20
2022-10-19T17:49:24.344Z,59.20
2022-10-19T17:51:52.620Z,59.40
2022-10-19T17:54:19.511Z,59.50
2022-10-19T17:56:46.266Z,59.60
2022-10-19T17:59:13.782Z,59.60
2022-10-19T18:01:40.926Z,59.70
2022-10-19T18:04:07.806Z,60.00
2022-10-19T18:06:36.512Z,60.10
2022-10-19T18:09:06.092Z,60.00
2022-10-19T18:11:37.152Z,60.20
2022-10-19T18:14:05.705Z,60.40
2022-10-19T18:16:38.477Z,60.40
2022-10-19T18:19:06.245Z,60.50
2022-10-19T18:21:38.387Z,60.40
2022-10-19T18:24:07.451Z,60.40
2022-10-19T18:26:35.999Z,60.60
2022-10-19T18:29:13.254Z,60.60
2022-10-19T18:31:40.904Z,60.90
2022-10-19T18:34:12.272Z,61.20
2022-10-19T18:36:39.138Z,61.20
2022-10-19T18:39:07.448Z,61.20
2022-10-19T18:41:34.597Z,61.30
2022-10-19T18:44:04.999Z,61.40
2022-10-19T18:46:36.688Z,61.60
2022-10-19T18:49:05.638Z,61.90
2022-10-19T18:51:32.678Z,61.90
2022-10-19T18:53:59.420Z,62.00
2022-10-19T18:56:29.293Z,62.00
2022-10-19T18:58:56.936Z,61.90
2022-10-19T19:01:26.829Z,61.80
2022-10-19T19:03:56.295Z,61.90
2022-10-19T19:06:25.689Z,62.20
2022-10-19T19:08:57.016Z,62.30
2022-10-19T19:11:30.666Z,62.50
2022-10-19T19:14:06.212Z,62.70
2022-10-19T19:16:35.684Z,62.80
2022-10-19T19:19:03.080Z,62.80
2022-10-19T19:21:31.682Z,63.00
2022-10-19T19:24:04.312Z,63.20
2022-10-19T19:26:36.753Z,63.60
2022-10-19T19:29:04.455Z,63.70
2022-10-19T19:31:31.538Z,63.70
2022-10-19T19:34:00.925Z,63.80
2022-10-19T19:36:28.247Z,63.80
2022-10-19T19:38:59.073Z,63.90
2022-10-19T19:41:26.198Z,64.00
2022-10-19T19:43:53.093Z,64.30
2022-10-19T19:46:20.852Z,64.30
2022-10-19T19:48:48.914Z,64.30
2022-10-19T19:51:20.460Z,64.60
2022-10-19T19:53:48.174Z,64.50
2022-10-19T19:56:16.405Z,64.70
2022-10-19T19:58:44.702Z,64.90
2022-10-19T20:01:19.939Z,64.70
2022-10-19T20:03:47.681Z,65.00
2022-10-19T20:06:18.674Z,64.90
2022-10-19T20:08:47.680Z,65.30
2022-10-19T20:11:17.473Z,65.20
2022-10-19T20:13:45.648Z,65.50
2022-10-19T20:16:15.531Z,65.40
2022-10-19T20:18:45.190Z,65.40
2022-10-19T20:21:12.608Z,65.50
2022-10-19T20:23:39.372Z,65.60
2022-10-19T20:26:06.697Z,65.60
2022-10-19T20:28:33.688Z,65.70
2022-10-19T20:31:06.534Z,65.90
2022-10-19T20:33:35.710Z,65.80
2022-10-19T20:36:09.013Z,66.10
2022-10-19T20:38:38.486Z,66.20
2022-10-19T20:41:09.580Z,66.20
2022-10-19T20:43:37.507Z,66.30
2022-10-19T20:46:08.940Z,66.50
2022-10-19T20:48:35.746Z,66.30
2022-10-19T20:51:15.671Z,66.40
2022-10-19T20:53:46.233Z,66.40
2022-10-19T20:56:15.315Z,66.60
2022-10-19T20:58:43.603Z,66.40
2022-10-19T21:01:13.939Z,66.40
2022-10-19T21:03:49.116Z,66.50
2022-10-19T21:06:15.880Z,66.80
2022-10-19T21:08:42.997Z,67.00
2022-10-19T21:11:17.487Z,67.00
2022-10-19T21:13:44.958Z,67.00
2022-10-19T21:16:17.316Z,67.10
2022-10-19T21:18:45.578Z,67.10
2022-10-19T21:21:24.023Z,67.10
2022-10-19T21:23:55.345Z,67.30
2022-10-19T21:26:24.311Z,67.40
2022-10-19T21:28:54.362Z,67.50
2022-10-19T21:31:23.026Z,67.40
2022-10-19T21:33:50.791Z,67.70
2022-10-19T21:36:17.979Z,67.70
2022-10-19T21:38:45.566Z,67.90
2022-10-19T21:41:14.976Z,67.80
2022-10-19T21:43:42.057Z,67.80
2022-10-19T21:46:12.461Z,67.90
2022-10-19T21:48:39.775Z,67.90
2022-10-19T21:51:34.565Z,68.10
2022-10-19T21:54:02.305Z,68.20
2022-10-19T21:56:29.546Z,68.30
2022-10-19T21:58:56.751Z,68.40
2022-10-19T22:01:26.908Z,68.50
2022-10-19T22:04:02.195Z,68.50
2022-10-19T22:06:31.228Z,68.80
2022-10-19T22:08:58.424Z,69.00
2022-10-19T22:11:26.765Z,69.20
2022-10-19T22:13:58.229Z,69.30
2022-10-19T22:16:27.159Z,69.40
2022-10-19T22:18:54.914Z,69.50
2022-10-19T22:21:28.703Z,69.40
2022-10-19T22:24:05.407Z,69.40
2022-10-19T22:26:47.152Z,69.60
2022-10-19T22:29:14.631Z,69.40
2022-10-19T22:31:41.499Z,69.60
2022-10-19T22:34:12.202Z,69.70
2022-10-19T22:36:39.017Z,69.80
2022-10-19T22:39:06.713Z,69.80
2022-10-19T22:42:04.989Z,70.00
2022-10-19T22:44:32.468Z,70.00
2022-10-19T22:46:59.621Z,69.90
2022-10-19T22:49:26.358Z,70.20
2022-10-19T22:51:53.252Z,70.20
2022-10-19T22:54:20.000Z,70.20
2022-10-19T22:56:46.896Z,70.00
2022-10-19T22:59:13.725Z,70.20
2022-10-19T23:01:40.673Z,70.30
2022-10-19T23:04:07.665Z,70.40
2022-10-19T23:06:34.526Z,70.40
2022-10-19T23:09:01.453Z,70.20
2022-10-19T23:11:28.327Z,70.50
2022-10-19T23:13:55.156Z,70.50
2022-10-19T23:16:21.972Z,70.60
2022-10-19T23:18:48.772Z,70.80
2022-10-19T23:21:16.890Z,70.70
2022-10-19T23:23:43.856Z,70.70
2022-10-19T23:26:12.548Z,70.70
2022-10-19T23:28:41.126Z,70.60
2022-10-19T23:31:19.909Z,70.60
2022-10-19T23:33:47.326Z,70.80
2022-10-19T23:36:22.703Z,70.80
2022-10-19T23:38:51.310Z,70.80
2022-10-19T23:41:18.963Z,71.00
2022-10-19T23:43:46.149Z,71.10
2022-10-19T23:46:13.368Z,71.40
2022-10-19T23:48:41.653Z,71.50
2022-10-19T23:51:11.099Z,71.50
2022-10-19T23:53:41.436Z,71.40
2022-10-19T23:56:18.801Z,71.60
2022-10-19T23:58:46.392Z,71.90
